Home > Products > Valid Products > MTR

000
SAUS45 KPIH 231352
MTRSNT
METAR KSNT 231351Z AUTO 17005KT 06/03 A3011 RMK AO1 SLP150 T00560028





000
SAUS45 KPIH 231252
MTRSNT
METAR KSNT 231251Z AUTO 00000KT 04/03 A3010 RMK AO1 SLP150 P0002
T00440033





000
SAUS45 KPIH 231152
MTRSNT
METAR KSNT 231151Z AUTO 17006KT 05/03 A3009 RMK AO1 SLP139 P0004
60017 70017 T00500033 10067 20044 57011





000
SAUS45 KPIH 231052
MTRSNT
METAR KSNT 231051Z AUTO 20006KT 04/03 A3010 RMK AO1 SLP143 P0005
T00440028





000
SAUS45 KPIH 230952
MTRSNT
METAR KSNT 230951Z AUTO VRB06G15KT 04/03 A3011 RMK AO1 SLP148 P0006
T00440028





000
SAUS45 KPIH 230952
MTRSNT
METAR KSNT 230951Z AUTO VRB06G15KT 04/03 A3011 RMK AO1 SLP148 P0006
T00440028





000
SAUS45 KPIH 230852
MTRSNT
METAR KSNT 230851Z AUTO 14007G15KT 05/03 A3013 RMK AO1 SLP158 P0002
60002 T00500028 53003





000
SAUS45 KPIH 230752
MTRSNT
METAR KSNT 230751Z AUTO 14007G17KT 06/02 A3012 RMK AO1 SLP157
T00610017





000
SAUS45 KPIH 230752
MTRSNT
METAR KSNT 230751Z AUTO 14007G17KT 06/02 A3012 RMK AO1 SLP157
T00610017





000
SAUS45 KPIH 230652
MTRSNT
METAR KSNT 230651Z AUTO VRB05KT 07/01 A3012 RMK AO1 SLP162 T00670006
400941033





000
SAUS45 KPIH 230552
MTRSNT
METAR KSNT 230551Z AUTO 15009KT 07/M01 A3012 RMK AO1 SLP163
T00671006 10083 20050 55001





000
SAUS45 KPIH 230552
MTRSNT
METAR KSNT 230551Z AUTO 15009KT 07/M01 A3012 RMK AO1 SLP163
T00671006 10083 20050 55001





000
SAUS45 KPIH 230452
MTRSNT
METAR KSNT 230451Z AUTO 17007KT 07/M02 A3012 RMK AO1 SLP166
T00671017





000
SAUS45 KPIH 230452
MTRSNT
METAR KSNT 230451Z AUTO 17007KT 07/M02 A3012 RMK AO1 SLP166
T00671017





000
SAUS45 KPIH 230352
MTRSNT
METAR KSNT 230351Z AUTO 15009KT 07/M02 A3012 RMK AO1 SLP168
T00671022





000
SAUS45 KPIH 230352
MTRSNT
METAR KSNT 230351Z AUTO 15009KT 07/M02 A3012 RMK AO1 SLP168
T00671022





000
SAUS45 KPIH 230252
MTRSNT
METAR KSNT 230251Z AUTO 15008KT 06/M03 A3012 RMK AO1 SLP173
T00611028 56002





000
SAUS45 KPIH 230152
MTRSNT
METAR KSNT 230151Z AUTO 16008KT 06/M03 A3012 RMK AO1 SLP176
T00611028





000
SAUS45 KPIH 230152
MTRSNT
METAR KSNT 230151Z AUTO 16008KT 06/M03 A3012 RMK AO1 SLP176
T00611028





000
SAUS45 KPIH 230052
MTRSNT
METAR KSNT 230051Z AUTO 15005KT 07/M02 A3012 RMK AO1 SLP172
T00671022





000
SAUS45 KPIH 230052
MTRSNT
METAR KSNT 230051Z AUTO 15005KT 07/M02 A3012 RMK AO1 SLP172
T00671022





000
SAUS45 KPIH 222352
MTRSNT
METAR KSNT 222351Z AUTO 16004KT 08/M03 A3013 RMK AO1 SLP170
T00831028 10094 20006 55009





000
SAUS45 KPIH 222352
MTRSNT
METAR KSNT 222351Z AUTO 16004KT 08/M03 A3013 RMK AO1 SLP170
T00831028 10094 20006 55009





000
SAUS45 KPIH 222252
MTRSNT
METAR KSNT 222251Z AUTO 15005KT 09/M03 A3013 RMK AO1 SLP166
T00891028





000
SAUS45 KPIH 222252
MTRSNT
METAR KSNT 222251Z AUTO 15005KT 09/M03 A3013 RMK AO1 SLP166
T00891028





000
SAUS45 KPIH 222152
MTRSNT
METAR KSNT 222151Z AUTO 35005KT 08/00 A3013 RMK AO1 SLP170 T00830000





000
SAUS45 KPIH 222052
MTRSNT
METAR KSNT 222051Z AUTO 34003KT 06/01 A3016 RMK AO1 SLP187 T00560006
58007





000
SAUS45 KPIH 221952
MTRSNT
METAR KSNT 221951Z AUTO 36004KT 05/00 A3017 RMK AO1 SLP193 T00500000





000
SAUS45 KPIH 221852
MTRSNT
METAR KSNT 221851Z AUTO 32005KT 01/M01 A3019 RMK AO1 SLP208
T00111011





000
SAUS45 KPIH 221752
MTRSNT
METAR KSNT 221751Z AUTO 36004KT 01/M01 A3019 RMK AO1 SLP207
T00061011 10006 21033 50001





000
SAUS45 KPIH 221752
MTRSNT
METAR KSNT 221751Z AUTO 36004KT 01/M01 A3019 RMK AO1 SLP207
T00061011 10006 21033 50001





000
SAUS45 KPIH 221652
MTRSNT
METAR KSNT 221651Z AUTO 35003KT 00/M01 A3019 RMK AO1 SLP212
T00001011





000
SAUS45 KPIH 221652
MTRSNT
METAR KSNT 221651Z AUTO 35003KT 00/M01 A3019 RMK AO1 SLP212
T00001011





000
SAUS45 KPIH 221552
MTRSNT
METAR KSNT 221551Z AUTO 03004KT M01/M02 A3020 RMK AO1 SLP212
T10111022





000
SAUS45 KPIH 221452
MTRSNT
METAR KSNT 221451Z AUTO 00000KT M02/M03 A3018 RMK AO1 SLP202
T10171028 53004





000
SAUS45 KPIH 221352
MTRSNT
METAR KSNT 221351Z AUTO 00000KT M03/M03 A3016 RMK AO1 SLP198
T10281033





000
SAUS45 KPIH 221252
MTRSNT
METAR KSNT 221251Z AUTO 00000KT M02/M03 A3017 RMK AO1 SLP197
T10221028





000
SAUS45 KPIH 221152
MTRSNT
METAR KSNT 221151Z AUTO 00000KT M02/M02 A3017 RMK AO1 SLP191 70026
T10171022 11006 21028 51006





000
SAUS45 KPIH 221052
MTRSNT
METAR KSNT 221051Z AUTO 00000KT M02/M02 A3016 RMK AO1 SLP186
T10171022





000
SAUS45 KPIH 220952
MTRSNT
METAR KSNT 220951Z AUTO 00000KT M02/M02 A3016 RMK AO1 SLP186
T10171022





000
SAUS45 KPIH 220952
MTRSNT
METAR KSNT 220951Z AUTO 00000KT M02/M02 A3016 RMK AO1 SLP186
T10171022





000
SAUS45 KPIH 220852
MTRSNT
METAR KSNT 220851Z AUTO 00000KT M01/M02 A3014 RMK AO1 SLP181
T10111017 50005





000
SAUS45 KPIH 220752
MTRSNT
METAR KSNT 220751Z AUTO 00000KT M02/M03 A3014 RMK AO1 SLP184
T10171028





000
SAUS45 KPIH 220652
MTRSNT
METAR KSNT 220651Z AUTO 00000KT M01/M02 A3013 RMK AO1 SLP182
T10111022 400891017





000
SAUS45 KPIH 220552
MTRSNT
METAR KSNT 220551Z AUTO 00000KT M01/M02 A3013 RMK AO1 SLP177
T10061017 10044 21017 50004





000
SAUS45 KPIH 220552
MTRSNT
METAR KSNT 220551Z AUTO 00000KT M01/M02 A3013 RMK AO1 SLP177
T10061017 10044 21017 50004





000
SAUS45 KPIH 220452
MTRSNT
METAR KSNT 220451Z AUTO 00000KT M01/M02 A3013 RMK AO1 SLP181
T10111017





000
SAUS45 KPIH 220452
MTRSNT
METAR KSNT 220451Z AUTO 00000KT M01/M02 A3013 RMK AO1 SLP181
T10111017





000
SAUS45 KPIH 220352
MTRSNT
METAR KSNT 220351Z AUTO 00000KT 01/M01 A3012 RMK AO1 SLP174
T00111006





000
SAUS45 KPIH 220252
MTRSNT
METAR KSNT 220251Z AUTO 00000KT 02/00 A3011 RMK AO1 SLP170 T00220000
53011





000
SAUS45 KPIH 220252
MTRSNT
METAR KSNT 220251Z AUTO 00000KT 02/00 A3011 RMK AO1 SLP170 T00220000
53011





000
SAUS45 KPIH 220152
MTRSNT
METAR KSNT 220151Z AUTO 00000KT 03/01 A3010 RMK AO1 SLP162 T00280006





000
SAUS45 KPIH 220152
MTRSNT
METAR KSNT 220151Z AUTO 00000KT 03/01 A3010 RMK AO1 SLP162 T00280006





000
SAUS45 KPIH 220052
MTRSNT
METAR KSNT 220051Z AUTO 00000KT 03/00 A3008 RMK AO1 SLP150 T00330000





000
SAUS45 KPIH 212352
MTRSNT
METAR KSNT 212351Z AUTO 00000KT 04/M01 A3007 RMK AO1 SLP141 60002
T00441011 10061 20033 51010





000
SAUS45 KPIH 212252
MTRSNT
METAR KSNT 212251Z AUTO 00000KT 06/00 A3006 RMK AO1 SLP132 T00560000





000
SAUS45 KPIH 212252
MTRSNT
METAR KSNT 212251Z AUTO 00000KT 06/00 A3006 RMK AO1 SLP132 T00560000





000
SAUS45 KPIH 212152
MTRSNT
METAR KSNT 212151Z AUTO 21004KT 06/00 A3005 RMK AO1 SLP129 T00560000





000
SAUS45 KPIH 212152
MTRSNT
METAR KSNT 212151Z AUTO 21004KT 06/00 A3005 RMK AO1 SLP129 T00560000





000
SAUS45 KPIH 212052
MTRSNT
METAR KSNT 212051Z AUTO 00000KT 05/02 A3003 RMK AO1 SLP123 60002
T00500017 51015





000
SAUS45 KPIH 211952
MTRSNT
METAR KSNT 211951Z AUTO 16005KT 04/02 A3002 RMK AO1 SLP119 P0001
T00440022





000
SAUS45 KPIH 211852
MTRSNT
METAR KSNT 211851Z AUTO 15006KT 03/02 A3001 RMK AO1 SLP120 P0001
T00330017





000
SAUS45 KPIH 211752
MTRSNT
METAR KSNT 211751Z AUTO 12003KT 03/02 A2998 RMK AO1 SLP105 60024
T00330017 10050 20017 53009





000
SAUS45 KPIH 211652
MTRSNT
METAR KSNT 211651Z AUTO 15007KT 03/02 A2995 RMK AO1 SLP092 P0001
T00280017





000
SAUS45 KPIH 211652
MTRSNT
METAR KSNT 211651Z AUTO 15007KT 03/02 A2995 RMK AO1 SLP092 P0001
T00280017





000
SAUS45 KPIH 211553 COR
MTRSNT
METAR KSNT 211551Z AUTO 19005KT 02/01 A2998 RMK AO1 SLP099 P0002
T00170006





000
SAUS45 KPIH 211553 COR
MTRSNT
METAR KSNT 211551Z AUTO 19005KT 02/01 A2998 RMK AO1 SLP099 P0002
T00170006





000
SAUS45 KPIH 211452
MTRSNT
METAR KSNT 211451Z AUTO 00000KT 02/01 A2995 RMK AO1 SLP094 P0004
60021 T00220011 53022





000
SAUS45 KPIH 211352
MTRSNT
METAR KSNT 211351Z AUTO 01007KT 02/01 A2991 RMK AO1 SLP080 P0011
T00220011





000
SAUS45 KPIH 211252
MTRSNT
METAR KSNT 211251Z AUTO 34004KT 04/03 A2989 RMK AO1 SLP058 P0006
T00440028





000
SAUS45 KPIH 211152
MTRSNT
METAR KSNT 211151Z AUTO 01006KT 05/03 A2987 RMK AO1 SLP044 P0002
60012 70013 T00500033 10094 20050 56008





000
SAUS45 KPIH 211152
MTRSNT
METAR KSNT 211151Z AUTO 01006KT 05/03 A2987 RMK AO1 SLP044 P0002
60012 70013 T00500033 10094 20050 56008





000
SAUS45 KPIH 211052
MTRSNT
METAR KSNT 211051Z AUTO 00000KT 06/04 A2988 RMK AO1 SLP040 T00610044





000
SAUS45 KPIH 211052
MTRSNT
METAR KSNT 211051Z AUTO 00000KT 06/04 A2988 RMK AO1 SLP040 T00610044





000
SAUS45 KPIH 210952
MTRSNT
METAR KSNT 210951Z AUTO 26004KT 06/04 A2988 RMK AO1 SLP041 P0005
T00610044





000
SAUS45 KPIH 210852
MTRSNT
METAR KSNT 210851Z AUTO VRB05KT 07/04 A2990 RMK AO1 SLP042 P0005
60005 T00670044 53006





000
SAUS45 KPIH 210752
MTRSNT
METAR KSNT 210751Z AUTO 35006KT 08/03 A2985 RMK AO1 SLP022 T00780033





000
SAUS45 KPIH 210652
MTRSNT
METAR KSNT 210651Z AUTO 14003KT 07/03 A2986 RMK AO1 SLP034 T00670028
402061044





000
SAUS45 KPIH 210552
MTRSNT
METAR KSNT 210551Z AUTO 16006KT 09/04 A2988 RMK AO1 SLP052 60001
T00890039 10156 20083 58008





000
SAUS45 KPIH 210452
MTRSNT
METAR KSNT 210451Z AUTO 12008KT 09/05 A2993 RMK AO1 SLP079 P0001
T00940050





000
SAUS45 KPIH 210452
MTRSNT
METAR KSNT 210451Z AUTO 12008KT 09/05 A2993 RMK AO1 SLP079 P0001
T00940050





000
SAUS45 KPIH 210352
MTRSNT
METAR KSNT 210351Z AUTO 17005KT 11/02 A2990 RMK AO1 SLP079 T01110017





000
SAUS45 KPIH 210352
MTRSNT
METAR KSNT 210351Z AUTO 17005KT 11/02 A2990 RMK AO1 SLP079 T01110017





000
SAUS45 KPIH 210252
MTRSNT
METAR KSNT 210251Z AUTO 00000KT 10/03 A2991 RMK AO1 SLP086 T01000028
58009





000
SAUS45 KPIH 210252
MTRSNT
METAR KSNT 210251Z AUTO 00000KT 10/03 A2991 RMK AO1 SLP086 T01000028
58009





000
SAUS45 KPIH 210152
MTRSNT
METAR KSNT 210151Z AUTO 16006KT 09/00 A2993 RMK AO1 SLP101 T00940000





000
SAUS45 KPIH 210152
MTRSNT
METAR KSNT 210151Z AUTO 16006KT 09/00 A2993 RMK AO1 SLP101 T00940000





000
SAUS45 KPIH 210052
MTRSNT
METAR KSNT 210051Z AUTO 15004KT 13/M01 A2993 RMK AO1 SLP090
T01331006





000
SAUS45 KPIH 202352
MTRSNT
METAR KSNT 202351Z AUTO 18004KT 16/M02 A2994 RMK AO1 SLP086
T01561022 10206 20094 58003





000
SAUS45 KPIH 202252
MTRSNT
METAR KSNT 202251Z AUTO 19007KT 18/M03 A2995 RMK AO1 SLP087
T01781028





000
SAUS45 KPIH 202252
MTRSNT
METAR KSNT 202251Z AUTO 19007KT 18/M03 A2995 RMK AO1 SLP087
T01781028





000
SAUS45 KPIH 202152
MTRSNT
METAR KSNT 202151Z AUTO 17011G20KT 18/M03 A2995 RMK AO1 SLP083
T01831033





000
SAUS45 KPIH 202152
MTRSNT
METAR KSNT 202151Z AUTO 17011G20KT 18/M03 A2995 RMK AO1 SLP083
T01831033





000
SAUS45 KPIH 202052
MTRSNT
METAR KSNT 202051Z AUTO 16012G22KT 20/M02 A2995 RMK AO1 SLP080
T02001022 56023





000
SAUS45 KPIH 201952
MTRSNT
METAR KSNT 201951Z AUTO 16009G19KT 140V210 20/M02 A2997 RMK AO1
SLP085 T02001022





000
SAUS45 KPIH 201852
MTRSNT
METAR KSNT 201851Z AUTO 00000KT 17/00 A3000 RMK AO1 SLP099 T01670000





000
SAUS45 KPIH 201752
MTRSNT
METAR KSNT 201751Z AUTO 34003KT 09/M02 A3004 RMK AO1 SLP120
T00941017 10094 21044 58013





000
SAUS45 KPIH 201652
MTRSNT
METAR KSNT 201651Z AUTO 00000KT 05/M02 A3006 RMK AO1 SLP140
T00501022





000
SAUS45 KPIH 201552
MTRSNT
METAR KSNT 201551Z AUTO 00000KT 00/M03 A3008 RMK AO1 SLP154
T00001033





000
SAUS45 KPIH 201452
MTRSNT
METAR KSNT 201451Z AUTO 00000KT M02/M04 A3008 RMK AO1 SLP155
T10171044 55001





    US Dept of Commerce
    National Oceanic and Atmospheric Administration
    National Weather Service
    1325 East West Highway
    Silver Spring, MD 20910
    Page Author: NWS Internet Services Team
Disclaimer
Information Quality
Credits
Glossary
Privacy Policy
Freedom of Information Act (FOIA)
About Us
Career Opportunities